Terminal Aerodrome Forecast
Issued by NWS

Home | Current Version | Previous Version | Text Only | Print | Product List | Glossary On
Versions: 1 2 3 4 5 6 7 8 9 10 11 12 13 14 15 16 17
822
FTUS46 KLOX 281723
TAFWJF
TAF
KWJF 281723Z 2818/2918 24009KT P6SM SKC
     FM282100 23018G25KT P6SM SCT080 SCT150
     FM290400 23012KT P6SM FEW150
     FM290900 23006KT P6SM SKC=

USA.gov is the U.S. government's official web portal to all federal, state and local government web resources and services.